sensor_id;sensor_type;location;lat;lon;timestamp;P1;durP1;ratioP1;P2;durP2;ratioP2
26951;SDS011;14507;52.418;13.398;2023-04-24T00:00:22;12.23;;;5.30;;
26951;SDS011;14507;52.418;13.398;2023-04-24T00:02:48;7.82;;;5.50;;
26951;SDS011;14507;52.418;13.398;2023-04-24T00:05:15;8.23;;;5.45;;
26951;SDS011;14507;52.418;13.398;2023-04-24T00:07:43;7.93;;;5.40;;
26951;SDS011;14507;52.418;13.398;2023-04-24T00:10:10;9.55;;;5.50;;
26951;SDS011;14507;52.418;13.398;2023-04-24T00:12:36;7.10;;;4.80;;
26951;SDS011;14507;52.418;13.398;2023-04-24T00:15:02;8.88;;;5.85;;
26951;SDS011;14507;52.418;13.398;2023-04-24T00:17:28;7.57;;;5.13;;
26951;SDS011;14507;52.418;13.398;2023-04-24T00:19:54;7.65;;;5.45;;
26951;SDS011;14507;52.418;13.398;2023-04-24T00:22:28;7.72;;;5.10;;
26951;SDS011;14507;52.418;13.398;2023-04-24T00:24:54;7.72;;;5.13;;
26951;SDS011;14507;52.418;13.398;2023-04-24T00:27:20;8.40;;;5.50;;
26951;SDS011;14507;52.418;13.398;2023-04-24T00:29:45;6.90;;;5.10;;
26951;SDS011;14507;52.418;13.398;2023-04-24T00:32:11;6.93;;;4.85;;
26951;SDS011;14507;52.418;13.398;2023-04-24T00:34:37;11.57;;;5.32;;
26951;SDS011;14507;52.418;13.398;2023-04-24T00:37:03;8.15;;;4.80;;
26951;SDS011;14507;52.418;13.398;2023-04-24T00:39:28;7.85;;;5.88;;
26951;SDS011;14507;52.418;13.398;2023-04-24T00:41:54;8.50;;;5.70;;
26951;SDS011;14507;52.418;13.398;2023-04-24T00:44:21;8.15;;;5.57;;
26951;SDS011;14507;52.418;13.398;2023-04-24T00:46:47;8.80;;;6.22;;
26951;SDS011;14507;52.418;13.398;2023-04-24T00:49:17;8.10;;;5.57;;
26951;SDS011;14507;52.418;13.398;2023-04-24T00:51:43;7.80;;;5.65;;
26951;SDS011;14507;52.418;13.398;2023-04-24T00:54:10;11.27;;;6.00;;
26951;SDS011;14507;52.418;13.398;2023-04-24T00:56:36;9.68;;;5.72;;
26951;SDS011;14507;52.418;13.398;2023-04-24T00:59:02;9.13;;;5.90;;
26951;SDS011;14507;52.418;13.398;2023-04-24T01:01:29;12.50;;;6.50;;
26951;SDS011;14507;52.418;13.398;2023-04-24T01:03:55;8.50;;;5.80;;
26951;SDS011;14507;52.418;13.398;2023-04-24T01:06:23;7.70;;;5.95;;
26951;SDS011;14507;52.418;13.398;2023-04-24T01:08:52;7.85;;;5.95;;
26951;SDS011;14507;52.418;13.398;2023-04-24T01:11:18;11.75;;;6.28;;
26951;SDS011;14507;52.418;13.398;2023-04-24T01:13:44;7.88;;;5.90;;
26951;SDS011;14507;52.418;13.398;2023-04-24T01:16:16;8.85;;;6.00;;
26951;SDS011;14507;52.418;13.398;2023-04-24T01:18:42;15.43;;;6.10;;
26951;SDS011;14507;52.418;13.398;2023-04-24T01:21:09;11.32;;;6.68;;
26951;SDS011;14507;52.418;13.398;2023-04-24T01:23:39;10.52;;;6.40;;
26951;SDS011;14507;52.418;13.398;2023-04-24T01:26:05;9.68;;;6.32;;
26951;SDS011;14507;52.418;13.398;2023-04-24T01:28:31;8.25;;;6.15;;
26951;SDS011;14507;52.418;13.398;2023-04-24T01:30:56;9.68;;;6.30;;
26951;SDS011;14507;52.418;13.398;2023-04-24T01:33:22;10.38;;;6.78;;
26951;SDS011;14507;52.418;13.398;2023-04-24T01:35:48;9.98;;;6.63;;
26951;SDS011;14507;52.418;13.398;2023-04-24T01:38:14;9.55;;;6.80;;
26951;SDS011;14507;52.418;13.398;2023-04-24T01:40:40;10.10;;;6.70;;
26951;SDS011;14507;52.418;13.398;2023-04-24T01:43:05;8.93;;;6.20;;
26951;SDS011;14507;52.418;13.398;2023-04-24T01:45:32;9.13;;;6.35;;
26951;SDS011;14507;52.418;13.398;2023-04-24T01:47:57;9.85;;;7.07;;
26951;SDS011;14507;52.418;13.398;2023-04-24T01:50:23;9.63;;;6.60;;
26951;SDS011;14507;52.418;13.398;2023-04-24T01:52:49;9.68;;;6.60;;
26951;SDS011;14507;52.418;13.398;2023-04-24T01:55:15;10.98;;;6.28;;
26951;SDS011;14507;52.418;13.398;2023-04-24T01:57:41;9.23;;;6.38;;
26951;SDS011;14507;52.418;13.398;2023-04-24T02:00:06;9.77;;;6.10;;
26951;SDS011;14507;52.418;13.398;2023-04-24T02:02:32;10.00;;;6.90;;
26951;SDS011;14507;52.418;13.398;2023-04-24T02:04:58;9.93;;;6.60;;
26951;SDS011;14507;52.418;13.398;2023-04-24T02:07:24;8.18;;;6.20;;
26951;SDS011;14507;52.418;13.398;2023-04-24T02:09:50;7.85;;;5.80;;
26951;SDS011;14507;52.418;13.398;2023-04-24T02:12:15;9.23;;;6.57;;
26951;SDS011;14507;52.418;13.398;2023-04-24T02:14:42;9.18;;;6.57;;
26951;SDS011;14507;52.418;13.398;2023-04-24T02:17:09;10.77;;;6.65;;
26951;SDS011;14507;52.418;13.398;2023-04-24T02:19:37;9.60;;;5.93;;
26951;SDS011;14507;52.418;13.398;2023-04-24T02:22:02;9.15;;;6.53;;
26951;SDS011;14507;52.418;13.398;2023-04-24T02:24:28;9.63;;;6.47;;
26951;SDS011;14507;52.418;13.398;2023-04-24T02:26:53;8.63;;;5.97;;
26951;SDS011;14507;52.418;13.398;2023-04-24T02:29:19;9.20;;;6.65;;
26951;SDS011;14507;52.418;13.398;2023-04-24T02:31:45;10.55;;;6.97;;
26951;SDS011;14507;52.418;13.398;2023-04-24T02:34:10;8.88;;;6.20;;
26951;SDS011;14507;52.418;13.398;2023-04-24T02:36:39;9.13;;;6.13;;
26951;SDS011;14507;52.418;13.398;2023-04-24T02:39:04;7.70;;;6.00;;
26951;SDS011;14507;52.418;13.398;2023-04-24T02:41:30;8.05;;;6.22;;
26951;SDS011;14507;52.418;13.398;2023-04-24T02:44:00;10.38;;;5.97;;
26951;SDS011;14507;52.418;13.398;2023-04-24T02:46:26;13.10;;;6.07;;
26951;SDS011;14507;52.418;13.398;2023-04-24T02:48:51;13.65;;;6.65;;
26951;SDS011;14507;52.418;13.398;2023-04-24T02:51:17;8.55;;;6.13;;
26951;SDS011;14507;52.418;13.398;2023-04-24T02:53:43;9.07;;;6.18;;
26951;SDS011;14507;52.418;13.398;2023-04-24T02:56:08;9.30;;;6.50;;
26951;SDS011;14507;52.418;13.398;2023-04-24T02:58:37;11.55;;;6.38;;
26951;SDS011;14507;52.418;13.398;2023-04-24T03:01:03;9.40;;;6.60;;
26951;SDS011;14507;52.418;13.398;2023-04-24T03:03:28;9.88;;;6.22;;
26951;SDS011;14507;52.418;13.398;2023-04-24T03:05:54;8.98;;;6.28;;
26951;SDS011;14507;52.418;13.398;2023-04-24T03:08:20;8.75;;;6.43;;
26951;SDS011;14507;52.418;13.398;2023-04-24T03:10:46;8.75;;;6.28;;
26951;SDS011;14507;52.418;13.398;2023-04-24T03:13:11;8.15;;;6.25;;
26951;SDS011;14507;52.418;13.398;2023-04-24T03:15:37;11.15;;;6.35;;
26951;SDS011;14507;52.418;13.398;2023-04-24T03:18:03;8.45;;;6.47;;
26951;SDS011;14507;52.418;13.398;2023-04-24T03:20:29;8.98;;;6.50;;
26951;SDS011;14507;52.418;13.398;2023-04-24T03:22:54;8.75;;;5.65;;
26951;SDS011;14507;52.418;13.398;2023-04-24T03:25:21;10.20;;;6.35;;
26951;SDS011;14507;52.418;13.398;2023-04-24T03:27:47;8.57;;;6.32;;
26951;SDS011;14507;52.418;13.398;2023-04-24T03:30:12;8.52;;;6.82;;
26951;SDS011;14507;52.418;13.398;2023-04-24T03:32:38;8.10;;;5.97;;
26951;SDS011;14507;52.418;13.398;2023-04-24T03:35:05;10.38;;;6.55;;
26951;SDS011;14507;52.418;13.398;2023-04-24T03:39:58;7.97;;;5.78;;
26951;SDS011;14507;52.418;13.398;2023-04-24T03:42:23;8.65;;;5.82;;
26951;SDS011;14507;52.418;13.398;2023-04-24T03:44:49;10.77;;;6.07;;
26951;SDS011;14507;52.418;13.398;2023-04-24T03:47:18;9.68;;;6.68;;
26951;SDS011;14507;52.418;13.398;2023-04-24T03:49:43;10.90;;;5.85;;
26951;SDS011;14507;52.418;13.398;2023-04-24T03:52:09;10.75;;;5.88;;
26951;SDS011;14507;52.418;13.398;2023-04-24T03:54:34;8.43;;;6.07;;
26951;SDS011;14507;52.418;13.398;2023-04-24T03:57:00;9.02;;;5.55;;
26951;SDS011;14507;52.418;13.398;2023-04-24T03:59:26;8.48;;;6.07;;
26951;SDS011;14507;52.418;13.398;2023-04-24T04:01:52;7.55;;;6.18;;
26951;SDS011;14507;52.418;13.398;2023-04-24T04:04:17;7.63;;;6.15;;
26951;SDS011;14507;52.418;13.398;2023-04-24T04:06:43;7.45;;;5.85;;
26951;SDS011;14507;52.418;13.398;2023-04-24T04:09:09;8.73;;;6.07;;
26951;SDS011;14507;52.418;13.398;2023-04-24T04:11:35;10.15;;;6.20;;
26951;SDS011;14507;52.418;13.398;2023-04-24T04:14:01;8.45;;;5.80;;
26951;SDS011;14507;52.418;13.398;2023-04-24T04:16:27;10.13;;;6.05;;
26951;SDS011;14507;52.418;13.398;2023-04-24T04:18:52;8.27;;;6.15;;
26951;SDS011;14507;52.418;13.398;2023-04-24T04:21:18;8.43;;;6.05;;
26951;SDS011;14507;52.418;13.398;2023-04-24T04:23:44;10.73;;;5.82;;
26951;SDS011;14507;52.418;13.398;2023-04-24T04:26:11;9.57;;;5.90;;
26951;SDS011;14507;52.418;13.398;2023-04-24T04:28:37;8.52;;;5.65;;
26951;SDS011;14507;52.418;13.398;2023-04-24T04:31:04;7.63;;;5.57;;
26951;SDS011;14507;52.418;13.398;2023-04-24T04:33:30;8.77;;;5.93;;
26951;SDS011;14507;52.418;13.398;2023-04-24T04:35:57;11.18;;;5.78;;
26951;SDS011;14507;52.418;13.398;2023-04-24T04:38:23;6.60;;;5.30;;
26951;SDS011;14507;52.418;13.398;2023-04-24T04:40:49;9.32;;;5.43;;
26951;SDS011;14507;52.418;13.398;2023-04-24T04:43:14;8.45;;;5.35;;
26951;SDS011;14507;52.418;13.398;2023-04-24T04:45:41;9.57;;;5.38;;
26951;SDS011;14507;52.418;13.398;2023-04-24T04:48:08;8.55;;;5.13;;
26951;SDS011;14507;52.418;13.398;2023-04-24T04:50:37;7.35;;;4.97;;
26951;SDS011;14507;52.418;13.398;2023-04-24T04:53:02;8.23;;;5.22;;
26951;SDS011;14507;52.418;13.398;2023-04-24T04:55:28;7.07;;;4.57;;
26951;SDS011;14507;52.418;13.398;2023-04-24T04:57:54;9.40;;;4.95;;
26951;SDS011;14507;52.418;13.398;2023-04-24T05:00:21;9.05;;;5.18;;
26951;SDS011;14507;52.418;13.398;2023-04-24T05:02:46;6.22;;;4.57;;
26951;SDS011;14507;52.418;13.398;2023-04-24T05:05:12;7.75;;;4.82;;
26951;SDS011;14507;52.418;13.398;2023-04-24T05:07:38;10.38;;;4.63;;
26951;SDS011;14507;52.418;13.398;2023-04-24T05:10:04;7.63;;;4.60;;
26951;SDS011;14507;52.418;13.398;2023-04-24T05:12:30;6.38;;;4.05;;
26951;SDS011;14507;52.418;13.398;2023-04-24T05:14:55;8.70;;;4.65;;
26951;SDS011;14507;52.418;13.398;2023-04-24T05:17:21;7.22;;;4.15;;
26951;SDS011;14507;52.418;13.398;2023-04-24T05:19:46;8.00;;;4.07;;
26951;SDS011;14507;52.418;13.398;2023-04-24T05:22:13;10.00;;;4.15;;
26951;SDS011;14507;52.418;13.398;2023-04-24T05:24:39;5.80;;;3.65;;
26951;SDS011;14507;52.418;13.398;2023-04-24T05:27:05;7.10;;;4.15;;
26951;SDS011;14507;52.418;13.398;2023-04-24T05:29:31;5.65;;;3.78;;
26951;SDS011;14507;52.418;13.398;2023-04-24T05:31:58;10.20;;;4.75;;
26951;SDS011;14507;52.418;13.398;2023-04-24T05:34:24;8.80;;;3.28;;
26951;SDS011;14507;52.418;13.398;2023-04-24T05:36:50;5.18;;;3.65;;
26951;SDS011;14507;52.418;13.398;2023-04-24T05:39:16;5.25;;;3.30;;
26951;SDS011;14507;52.418;13.398;2023-04-24T05:41:42;7.88;;;3.60;;
26951;SDS011;14507;52.418;13.398;2023-04-24T05:44:08;6.82;;;3.50;;
26951;SDS011;14507;52.418;13.398;2023-04-24T05:46:34;5.82;;;3.10;;
26951;SDS011;14507;52.418;13.398;2023-04-24T05:49:00;8.68;;;3.33;;
26951;SDS011;14507;52.418;13.398;2023-04-24T05:51:25;4.68;;;2.75;;
26951;SDS011;14507;52.418;13.398;2023-04-24T05:53:51;5.07;;;3.10;;
26951;SDS011;14507;52.418;13.398;2023-04-24T05:56:17;5.57;;;3.00;;
26951;SDS011;14507;52.418;13.398;2023-04-24T05:58:43;7.15;;;2.92;;
26951;SDS011;14507;52.418;13.398;2023-04-24T06:01:10;4.80;;;2.47;;
26951;SDS011;14507;52.418;13.398;2023-04-24T06:03:36;4.13;;;2.40;;
26951;SDS011;14507;52.418;13.398;2023-04-24T06:06:02;5.93;;;2.58;;
26951;SDS011;14507;52.418;13.398;2023-04-24T06:08:28;7.32;;;2.47;;
26951;SDS011;14507;52.418;13.398;2023-04-24T06:10:54;5.00;;;2.33;;
26951;SDS011;14507;52.418;13.398;2023-04-24T06:13:19;3.78;;;1.95;;
26951;SDS011;14507;52.418;13.398;2023-04-24T06:15:45;5.32;;;2.03;;
26951;SDS011;14507;52.418;13.398;2023-04-24T06:18:11;5.45;;;2.53;;
26951;SDS011;14507;52.418;13.398;2023-04-24T06:20:37;3.00;;;1.70;;
26951;SDS011;14507;52.418;13.398;2023-04-24T06:23:04;5.65;;;2.03;;
26951;SDS011;14507;52.418;13.398;2023-04-24T06:25:29;3.60;;;1.83;;
26951;SDS011;14507;52.418;13.398;2023-04-24T06:27:55;4.00;;;1.80;;
26951;SDS011;14507;52.418;13.398;2023-04-24T06:30:21;5.40;;;2.20;;
26951;SDS011;14507;52.418;13.398;2023-04-24T06:32:47;5.07;;;2.30;;
26951;SDS011;14507;52.418;13.398;2023-04-24T06:35:13;2.97;;;1.45;;
26951;SDS011;14507;52.418;13.398;2023-04-24T06:37:39;7.35;;;1.65;;
26951;SDS011;14507;52.418;13.398;2023-04-24T06:40:06;10.53;;;1.73;;
26951;SDS011;14507;52.418;13.398;2023-04-24T06:42:32;3.10;;;1.27;;
26951;SDS011;14507;52.418;13.398;2023-04-24T06:44:58;4.00;;;1.23;;
26951;SDS011;14507;52.418;13.398;2023-04-24T06:47:24;4.28;;;1.50;;
26951;SDS011;14507;52.418;13.398;2023-04-24T06:49:49;4.10;;;1.52;;
26951;SDS011;14507;52.418;13.398;2023-04-24T06:52:17;2.83;;;1.30;;
26951;SDS011;14507;52.418;13.398;2023-04-24T06:54:43;5.65;;;1.73;;
26951;SDS011;14507;52.418;13.398;2023-04-24T06:57:09;4.05;;;1.40;;
26951;SDS011;14507;52.418;13.398;2023-04-24T06:59:35;4.28;;;1.45;;
26951;SDS011;14507;52.418;13.398;2023-04-24T07:02:04;4.32;;;1.77;;
26951;SDS011;14507;52.418;13.398;2023-04-24T07:04:30;5.30;;;1.00;;
26951;SDS011;14507;52.418;13.398;2023-04-24T07:06:56;5.80;;;1.40;;
26951;SDS011;14507;52.418;13.398;2023-04-24T07:09:23;5.78;;;1.15;;
26951;SDS011;14507;52.418;13.398;2023-04-24T07:11:50;4.35;;;1.30;;
26951;SDS011;14507;52.418;13.398;2023-04-24T07:14:19;2.17;;;1.20;;
26951;SDS011;14507;52.418;13.398;2023-04-24T07:16:51;2.97;;;0.90;;
26951;SDS011;14507;52.418;13.398;2023-04-24T07:19:16;3.55;;;1.40;;
26951;SDS011;14507;52.418;13.398;2023-04-24T07:21:42;8.93;;;1.52;;
26951;SDS011;14507;52.418;13.398;2023-04-24T07:24:08;7.57;;;1.33;;
26951;SDS011;14507;52.418;13.398;2023-04-24T07:26:38;3.15;;;0.90;;
26951;SDS011;14507;52.418;13.398;2023-04-24T07:29:04;2.22;;;0.80;;
26951;SDS011;14507;52.418;13.398;2023-04-24T07:31:30;2.95;;;1.30;;
26951;SDS011;14507;52.418;13.398;2023-04-24T07:33:56;4.78;;;1.27;;
26951;SDS011;14507;52.418;13.398;2023-04-24T07:36:23;3.45;;;1.25;;
26951;SDS011;14507;52.418;13.398;2023-04-24T07:38:50;3.92;;;1.15;;
26951;SDS011;14507;52.418;13.398;2023-04-24T07:41:17;5.93;;;1.23;;
26951;SDS011;14507;52.418;13.398;2023-04-24T07:43:42;2.97;;;1.00;;
26951;SDS011;14507;52.418;13.398;2023-04-24T07:46:09;3.20;;;1.10;;
26951;SDS011;14507;52.418;13.398;2023-04-24T07:48:35;4.00;;;1.20;;
26951;SDS011;14507;52.418;13.398;2023-04-24T07:51:01;2.92;;;1.17;;
26951;SDS011;14507;52.418;13.398;2023-04-24T07:53:27;2.00;;;0.73;;
26951;SDS011;14507;52.418;13.398;2023-04-24T07:55:53;3.63;;;0.85;;
26951;SDS011;14507;52.418;13.398;2023-04-24T07:58:20;2.50;;;0.80;;
26951;SDS011;14507;52.418;13.398;2023-04-24T08:00:46;7.90;;;1.30;;
26951;SDS011;14507;52.418;13.398;2023-04-24T08:03:12;2.50;;;0.70;;
26951;SDS011;14507;52.418;13.398;2023-04-24T08:05:38;2.05;;;0.60;;
26951;SDS011;14507;52.418;13.398;2023-04-24T08:08:04;2.33;;;1.00;;
26951;SDS011;14507;52.418;13.398;2023-04-24T08:10:29;3.53;;;0.90;;
26951;SDS011;14507;52.418;13.398;2023-04-24T08:12:55;1.38;;;0.63;;
26951;SDS011;14507;52.418;13.398;2023-04-24T08:15:21;1.65;;;0.68;;
26951;SDS011;14507;52.418;13.398;2023-04-24T08:17:47;2.78;;;0.90;;
26951;SDS011;14507;52.418;13.398;2023-04-24T08:20:12;3.00;;;0.98;;
26951;SDS011;14507;52.418;13.398;2023-04-24T08:22:41;3.67;;;0.98;;
26951;SDS011;14507;52.418;13.398;2023-04-24T08:25:08;3.88;;;0.65;;
26951;SDS011;14507;52.418;13.398;2023-04-24T08:27:35;4.13;;;0.90;;
26951;SDS011;14507;52.418;13.398;2023-04-24T08:30:04;6.05;;;1.20;;
26951;SDS011;14507;52.418;13.398;2023-04-24T08:34:57;3.15;;;0.73;;
26951;SDS011;14507;52.418;13.398;2023-04-24T08:37:24;3.33;;;0.50;;
26951;SDS011;14507;52.418;13.398;2023-04-24T08:39:50;3.42;;;0.60;;
26951;SDS011;14507;52.418;13.398;2023-04-24T08:42:16;2.40;;;0.90;;
26951;SDS011;14507;52.418;13.398;2023-04-24T08:44:43;5.80;;;1.03;;
26951;SDS011;14507;52.418;13.398;2023-04-24T08:47:10;2.17;;;0.70;;
26951;SDS011;14507;52.418;13.398;2023-04-24T08:49:37;4.50;;;0.83;;
26951;SDS011;14507;52.418;13.398;2023-04-24T08:52:03;1.42;;;0.70;;
26951;SDS011;14507;52.418;13.398;2023-04-24T08:54:30;1.75;;;0.60;;
26951;SDS011;14507;52.418;13.398;2023-04-24T08:57:00;3.55;;;0.73;;
26951;SDS011;14507;52.418;13.398;2023-04-24T08:59:27;2.85;;;0.90;;
26951;SDS011;14507;52.418;13.398;2023-04-24T09:01:53;1.90;;;0.82;;
26951;SDS011;14507;52.418;13.398;2023-04-24T09:04:20;3.05;;;1.00;;
26951;SDS011;14507;52.418;13.398;2023-04-24T09:06:49;4.05;;;0.93;;
26951;SDS011;14507;52.418;13.398;2023-04-24T09:09:16;4.57;;;0.90;;
26951;SDS011;14507;52.418;13.398;2023-04-24T09:11:43;3.42;;;0.68;;
26951;SDS011;14507;52.418;13.398;2023-04-24T09:14:09;2.63;;;0.70;;
26951;SDS011;14507;52.418;13.398;2023-04-24T09:16:35;4.05;;;1.33;;
26951;SDS011;14507;52.418;13.398;2023-04-24T09:19:01;5.57;;;1.08;;
26951;SDS011;14507;52.418;13.398;2023-04-24T09:21:31;3.70;;;0.98;;
26951;SDS011;14507;52.418;13.398;2023-04-24T09:24:03;1.85;;;0.80;;
26951;SDS011;14507;52.418;13.398;2023-04-24T09:26:31;5.32;;;0.98;;
26951;SDS011;14507;52.418;13.398;2023-04-24T09:28:57;5.78;;;1.30;;
26951;SDS011;14507;52.418;13.398;2023-04-24T09:31:24;6.65;;;1.25;;
26951;SDS011;14507;52.418;13.398;2023-04-24T09:33:53;12.60;;;1.42;;
26951;SDS011;14507;52.418;13.398;2023-04-24T09:36:28;3.70;;;0.95;;
26951;SDS011;14507;52.418;13.398;2023-04-24T09:38:57;4.13;;;1.00;;
26951;SDS011;14507;52.418;13.398;2023-04-24T09:41:23;2.97;;;0.82;;
26951;SDS011;14507;52.418;13.398;2023-04-24T09:43:49;3.03;;;0.50;;
26951;SDS011;14507;52.418;13.398;2023-04-24T09:46:15;0.82;;;0.50;;
26951;SDS011;14507;52.418;13.398;2023-04-24T09:48:43;4.53;;;0.85;;
26951;SDS011;14507;52.418;13.398;2023-04-24T09:51:09;2.03;;;0.80;;
26951;SDS011;14507;52.418;13.398;2023-04-24T09:53:37;1.88;;;0.85;;
26951;SDS011;14507;52.418;13.398;2023-04-24T09:56:07;5.75;;;1.20;;
26951;SDS011;14507;52.418;13.398;2023-04-24T09:58:34;3.05;;;1.10;;
26951;SDS011;14507;52.418;13.398;2023-04-24T10:01:01;9.13;;;1.35;;
26951;SDS011;14507;52.418;13.398;2023-04-24T10:03:31;4.55;;;0.85;;
26951;SDS011;14507;52.418;13.398;2023-04-24T10:06:00;2.10;;;0.68;;
26951;SDS011;14507;52.418;13.398;2023-04-24T10:08:26;2.70;;;0.90;;
26951;SDS011;14507;52.418;13.398;2023-04-24T10:10:59;1.27;;;0.50;;
26951;SDS011;14507;52.418;13.398;2023-04-24T10:13:25;1.30;;;0.50;;
26951;SDS011;14507;52.418;13.398;2023-04-24T10:15:50;2.05;;;0.70;;
26951;SDS011;14507;52.418;13.398;2023-04-24T10:18:17;2.13;;;0.65;;
26951;SDS011;14507;52.418;13.398;2023-04-24T10:20:44;3.20;;;0.60;;
26951;SDS011;14507;52.418;13.398;2023-04-24T10:23:10;4.25;;;0.50;;
26951;SDS011;14507;52.418;13.398;2023-04-24T10:25:37;2.20;;;0.52;;
26951;SDS011;14507;52.418;13.398;2023-04-24T10:28:02;1.95;;;0.50;;
26951;SDS011;14507;52.418;13.398;2023-04-24T10:30:30;2.33;;;0.50;;
26951;SDS011;14507;52.418;13.398;2023-04-24T10:33:01;1.48;;;0.60;;
26951;SDS011;14507;52.418;13.398;2023-04-24T10:35:29;2.50;;;0.70;;
26951;SDS011;14507;52.418;13.398;2023-04-24T10:38:04;2.75;;;0.50;;
26951;SDS011;14507;52.418;13.398;2023-04-24T10:40:35;3.95;;;1.05;;
26951;SDS011;14507;52.418;13.398;2023-04-24T10:43:02;1.77;;;0.80;;
26951;SDS011;14507;52.418;13.398;2023-04-24T10:45:31;3.08;;;0.82;;
26951;SDS011;14507;52.418;13.398;2023-04-24T10:47:58;2.50;;;0.88;;
26951;SDS011;14507;52.418;13.398;2023-04-24T10:50:28;1.70;;;0.63;;
26951;SDS011;14507;52.418;13.398;2023-04-24T10:53:05;2.38;;;0.73;;
26951;SDS011;14507;52.418;13.398;2023-04-24T10:58:14;2.83;;;0.70;;
26951;SDS011;14507;52.418;13.398;2023-04-24T11:00:42;3.67;;;0.80;;
26951;SDS011;14507;52.418;13.398;2023-04-24T11:03:23;2.15;;;0.70;;
26951;SDS011;14507;52.418;13.398;2023-04-24T11:05:53;1.75;;;0.73;;
26951;SDS011;14507;52.418;13.398;2023-04-24T11:08:31;2.00;;;0.68;;
26951;SDS011;14507;52.418;13.398;2023-04-24T11:11:04;4.65;;;0.55;;
26951;SDS011;14507;52.418;13.398;2023-04-24T11:21:47;1.90;;;0.65;;
26951;SDS011;14507;52.418;13.398;2023-04-24T11:29:17;5.13;;;0.90;;
26951;SDS011;14507;52.418;13.398;2023-04-24T11:31:46;2.63;;;0.85;;
26951;SDS011;14507;52.418;13.398;2023-04-24T11:34:16;4.93;;;0.82;;
26951;SDS011;14507;52.418;13.398;2023-04-24T11:36:46;2.38;;;0.90;;
26951;SDS011;14507;52.418;13.398;2023-04-24T11:39:13;4.15;;;1.45;;
26951;SDS011;14507;52.418;13.398;2023-04-24T11:41:39;3.00;;;0.93;;
26951;SDS011;14507;52.418;13.398;2023-04-24T11:44:08;3.95;;;1.20;;
26951;SDS011;14507;52.418;13.398;2023-04-24T11:46:34;3.03;;;0.90;;
26951;SDS011;14507;52.418;13.398;2023-04-24T11:49:00;3.70;;;0.90;;
26951;SDS011;14507;52.418;13.398;2023-04-24T11:51:26;5.60;;;0.88;;
26951;SDS011;14507;52.418;13.398;2023-04-24T11:53:55;2.65;;;0.90;;
26951;SDS011;14507;52.418;13.398;2023-04-24T11:56:22;8.00;;;1.33;;
26951;SDS011;14507;52.418;13.398;2023-04-24T11:58:48;3.30;;;0.90;;
26951;SDS011;14507;52.418;13.398;2023-04-24T12:01:18;1.40;;;0.63;;
26951;SDS011;14507;52.418;13.398;2023-04-24T12:03:47;4.32;;;0.80;;
26951;SDS011;14507;52.418;13.398;2023-04-24T12:06:14;2.17;;;0.60;;
26951;SDS011;14507;52.418;13.398;2023-04-24T12:08:39;1.98;;;0.70;;
26951;SDS011;14507;52.418;13.398;2023-04-24T12:11:06;3.25;;;1.10;;
26951;SDS011;14507;52.418;13.398;2023-04-24T12:13:33;1.15;;;0.57;;
26951;SDS011;14507;52.418;13.398;2023-04-24T12:16:02;1.98;;;0.88;;
26951;SDS011;14507;52.418;13.398;2023-04-24T12:18:29;2.83;;;0.60;;
26951;SDS011;14507;52.418;13.398;2023-04-24T12:20:54;4.55;;;0.82;;
26951;SDS011;14507;52.418;13.398;2023-04-24T12:23:33;3.58;;;0.65;;
26951;SDS011;14507;52.418;13.398;2023-04-24T12:26:19;5.03;;;0.80;;
26951;SDS011;14507;52.418;13.398;2023-04-24T12:29:11;1.50;;;0.80;;
26951;SDS011;14507;52.418;13.398;2023-04-24T12:31:45;1.48;;;0.70;;
26951;SDS011;14507;52.418;13.398;2023-04-24T12:34:20;5.20;;;0.70;;
26951;SDS011;14507;52.418;13.398;2023-04-24T12:36:47;2.15;;;0.82;;
26951;SDS011;14507;52.418;13.398;2023-04-24T12:39:17;3.05;;;0.60;;
26951;SDS011;14507;52.418;13.398;2023-04-24T12:42:25;2.63;;;0.63;;
26951;SDS011;14507;52.418;13.398;2023-04-24T12:44:36;1.92;;;0.50;;
26951;SDS011;14507;52.418;13.398;2023-04-24T12:47:02;0.82;;;0.50;;
26951;SDS011;14507;52.418;13.398;2023-04-24T12:49:29;1.27;;;0.50;;
26951;SDS011;14507;52.418;13.398;2023-04-24T12:51:55;1.88;;;0.50;;
26951;SDS011;14507;52.418;13.398;2023-04-24T12:54:21;0.95;;;0.50;;
26951;SDS011;14507;52.418;13.398;2023-04-24T12:56:47;5.00;;;0.70;;
26951;SDS011;14507;52.418;13.398;2023-04-24T12:59:12;2.08;;;0.70;;
26951;SDS011;14507;52.418;13.398;2023-04-24T13:01:38;1.98;;;0.57;;
26951;SDS011;14507;52.418;13.398;2023-04-24T13:04:05;1.52;;;0.50;;
26951;SDS011;14507;52.418;13.398;2023-04-24T13:06:30;1.42;;;0.57;;
26951;SDS011;14507;52.418;13.398;2023-04-24T13:08:56;0.88;;;0.45;;
26951;SDS011;14507;52.418;13.398;2023-04-24T13:11:23;1.25;;;0.50;;
26951;SDS011;14507;52.418;13.398;2023-04-24T13:13:49;2.05;;;0.55;;
26951;SDS011;14507;52.418;13.398;2023-04-24T13:16:15;2.13;;;0.52;;
26951;SDS011;14507;52.418;13.398;2023-04-24T13:18:40;1.40;;;0.60;;
26951;SDS011;14507;52.418;13.398;2023-04-24T13:21:06;0.98;;;0.50;;
26951;SDS011;14507;52.418;13.398;2023-04-24T13:23:32;1.13;;;0.68;;
26951;SDS011;14507;52.418;13.398;2023-04-24T13:25:58;2.35;;;0.60;;
26951;SDS011;14507;52.418;13.398;2023-04-24T13:28:24;2.60;;;0.80;;
26951;SDS011;14507;52.418;13.398;2023-04-24T13:30:50;2.60;;;0.75;;
26951;SDS011;14507;52.418;13.398;2023-04-24T13:33:16;1.77;;;0.60;;
26951;SDS011;14507;52.418;13.398;2023-04-24T13:35:42;2.42;;;0.85;;
26951;SDS011;14507;52.418;13.398;2023-04-24T13:38:07;1.55;;;0.95;;
26951;SDS011;14507;52.418;13.398;2023-04-24T13:40:33;1.15;;;0.50;;
26951;SDS011;14507;52.418;13.398;2023-04-24T13:42:58;3.28;;;0.70;;
26951;SDS011;14507;52.418;13.398;2023-04-24T13:45:24;7.85;;;0.80;;
26951;SDS011;14507;52.418;13.398;2023-04-24T13:47:50;2.30;;;0.50;;
26951;SDS011;14507;52.418;13.398;2023-04-24T13:50:16;1.20;;;0.50;;
26951;SDS011;14507;52.418;13.398;2023-04-24T13:52:42;2.13;;;0.93;;
26951;SDS011;14507;52.418;13.398;2023-04-24T13:55:07;5.18;;;0.75;;
26951;SDS011;14507;52.418;13.398;2023-04-24T13:57:33;1.50;;;0.60;;
26951;SDS011;14507;52.418;13.398;2023-04-24T13:59:59;1.77;;;0.82;;
26951;SDS011;14507;52.418;13.398;2023-04-24T14:02:27;2.42;;;0.82;;
26951;SDS011;14507;52.418;13.398;2023-04-24T14:04:52;3.10;;;0.80;;
26951;SDS011;14507;52.418;13.398;2023-04-24T14:07:18;2.85;;;0.88;;
26951;SDS011;14507;52.418;13.398;2023-04-24T14:09:43;1.65;;;0.68;;
26951;SDS011;14507;52.418;13.398;2023-04-24T14:12:09;1.42;;;0.68;;
26951;SDS011;14507;52.418;13.398;2023-04-24T14:14:35;2.70;;;0.82;;
26951;SDS011;14507;52.418;13.398;2023-04-24T14:17:00;2.22;;;0.82;;
26951;SDS011;14507;52.418;13.398;2023-04-24T14:19:26;2.88;;;0.43;;
26951;SDS011;14507;52.418;13.398;2023-04-24T14:21:52;3.53;;;0.85;;
26951;SDS011;14507;52.418;13.398;2023-04-24T14:24:17;1.50;;;0.60;;
26951;SDS011;14507;52.418;13.398;2023-04-24T14:26:43;2.08;;;0.65;;
26951;SDS011;14507;52.418;13.398;2023-04-24T14:29:08;2.83;;;0.90;;
26951;SDS011;14507;52.418;13.398;2023-04-24T14:31:34;2.92;;;0.90;;
26951;SDS011;14507;52.418;13.398;2023-04-24T14:34:00;1.13;;;0.60;;
26951;SDS011;14507;52.418;13.398;2023-04-24T14:36:25;7.32;;;0.90;;
26951;SDS011;14507;52.418;13.398;2023-04-24T14:38:51;1.65;;;0.50;;
26951;SDS011;14507;52.418;13.398;2023-04-24T14:41:17;3.55;;;1.00;;
26951;SDS011;14507;52.418;13.398;2023-04-24T14:43:42;5.32;;;1.00;;
26951;SDS011;14507;52.418;13.398;2023-04-24T14:46:08;1.40;;;0.70;;
26951;SDS011;14507;52.418;13.398;2023-04-24T14:48:33;2.55;;;0.98;;
26951;SDS011;14507;52.418;13.398;2023-04-24T14:50:59;3.90;;;1.13;;